Impacts METAR Board INFO
IDs:

KTCL - Tuscaloosa Rgnl, AL, US

Updated at: 0755 UTC 20 Feb 2018
Potential Impact None Slight Moderate High
Time19/19Z 19/20Z 19/21Z 19/22Z 19/23Z 20/00Z 20/01Z 20/02Z 20/03Z 20/04Z 20/05Z 20/06Z 20/07Z
VIS10 10 10 10 10 10 10 10 10 10 10 10 10
CIG75 75 -- -- -- -- 60 -- -- -- -- -- 75
CoverOVCBKNSCTFEWCLRCLRBKNFEWCLRCLRSCTFEWOVC
FltCatVFRVFRVFRVFRVFRVFRVFRVFRVFRVFRVFRVFRVFR
WX--------------------------
WDir1701701801701701401201400170170170190
WSpd8 10 12 10 11 6 5 5 6 8 9 6 5
WGst17 22 -- -- 17 -- -- -- -- -- -- -- --
Raw hourly METARs
KTCL 191853Z 17008G17KT 10SM SCT039 SCT047 OVC075 24/17 A3018 RMK AO2 SLP216 T02440167
KTCL 191953Z 17010G22KT 10SM FEW042 SCT055 BKN075 25/16 A3015 RMK AO2 SLP208 T02500161
KTCL 192053Z 18012KT 10SM FEW050 SCT060 26/17 A3014 RMK AO2 SLP206 T02610167 56022
KTCL 192153Z 17010KT 10SM FEW049 26/16 A3013 RMK AO2 SLP202 T02610161
KTCL 192253Z 17011G17KT 10SM CLR 26/16 A3014 RMK AO2 SLP204 T02560161
KTCL 192353Z 14006KT 10SM CLR 24/16 A3015 RMK AO2 SLP208 T02440161 10261 20233 53002
KTCL 200053Z 12005KT 10SM BKN060 BKN075 23/16 A3016 RMK AO2 SLP212 T02330161
KTCL 200153Z AUTO 14005KT 10SM FEW075 23/16 A3017 RMK AO2 SLP215 T02280161
KTCL 200253Z AUTO VRB06KT 10SM CLR 22/16 A3019 RMK AO2 SLP221 T02170161 53013
KTCL 200353Z AUTO 17008KT 10SM CLR 22/16 A3020 RMK AO2 SLP225 T02170161
KTCL 200453Z AUTO 17009KT 10SM SCT075 22/17 A3021 RMK AO2 SLP227 T02170167
KTCL 200553Z AUTO 17006KT 10SM FEW075 21/17 A3022 RMK AO2 SLP230 T02060167 10244 20206 402610106 52010
KTCL 200653Z AUTO 19005KT 10SM OVC075 19/17 A3023 RMK AO2 SLP235 T01940167